createdAt,value
2018-10-02T00:00:06.254Z,10.72
2018-10-02T00:02:35.187Z,11.10
2018-10-02T00:05:04.129Z,15.50
2018-10-02T00:07:33.085Z,14.83
2018-10-02T00:10:02.018Z,11.90
2018-10-02T00:12:36.359Z,11.55
2018-10-02T00:15:05.686Z,8.63
2018-10-02T00:17:34.645Z,9.40
2018-10-02T00:20:03.664Z,17.32
2018-10-02T00:22:32.630Z,9.08
2018-10-02T00:25:01.561Z,12.50
2018-10-02T00:27:30.514Z,13.78
2018-10-02T00:29:59.461Z,16.02
2018-10-02T00:32:28.566Z,9.83
2018-10-02T00:34:57.389Z,10.03
2018-10-02T00:37:26.345Z,9.83
2018-10-02T00:39:55.274Z,10.43
2018-10-02T00:42:24.274Z,10.13
2018-10-02T00:44:53.213Z,13.30
2018-10-02T00:47:22.165Z,15.00
2018-10-02T00:49:51.101Z,8.78
2018-10-02T00:52:20.062Z,13.58
2018-10-02T00:54:48.997Z,15.07
2018-10-02T00:57:17.962Z,10.00
2018-10-02T00:59:46.886Z,9.60
2018-10-02T01:02:15.834Z,15.08
2018-10-02T01:04:44.775Z,12.88
2018-10-02T01:07:13.763Z,12.25
2018-10-02T01:09:42.693Z,15.90
2018-10-02T01:12:11.646Z,14.65
2018-10-02T01:14:40.594Z,18.27
2018-10-02T01:17:09.533Z,15.83
2018-10-02T01:19:38.454Z,14.95
2018-10-02T01:22:07.370Z,12.53
2018-10-02T01:24:36.266Z,21.27
2018-10-02T01:27:05.445Z,11.25
2018-10-02T01:29:34.381Z,14.63
2018-10-02T01:32:03.298Z,15.65
2018-10-02T01:34:32.206Z,15.65
2018-10-02T01:37:01.141Z,11.35
2018-10-02T01:39:30.053Z,13.40
2018-10-02T01:41:59.029Z,14.73
2018-10-02T01:44:27.937Z,13.55
2018-10-02T01:46:56.870Z,20.35
2018-10-02T01:49:25.778Z,18.33
2018-10-02T01:51:54.694Z,19.07
2018-10-02T01:54:23.610Z,13.15
2018-10-02T01:56:52.549Z,13.72
2018-10-02T01:59:21.457Z,17.95
2018-10-02T02:01:50.394Z,11.88
2018-10-02T02:04:19.314Z,19.70
2018-10-02T02:06:48.244Z,21.40
2018-10-02T02:09:17.150Z,23.25
2018-10-02T02:11:46.082Z,17.27
2018-10-02T02:14:15.012Z,14.68
2018-10-02T02:16:43.943Z,12.65
2018-10-02T02:19:12.888Z,17.40
2018-10-02T02:21:41.838Z,16.80
2018-10-02T02:24:10.729Z,19.80
2018-10-02T02:26:39.681Z,17.30
2018-10-02T02:29:08.585Z,18.07
2018-10-02T02:31:37.523Z,17.73
2018-10-02T02:34:06.454Z,16.15
2018-10-02T02:36:35.370Z,20.62
2018-10-02T02:39:05.262Z,18.55
2018-10-02T02:41:34.182Z,14.73
2018-10-02T02:44:03.122Z,11.73
2018-10-02T02:46:32.049Z,13.60
2018-10-02T02:49:06.294Z,21.60
2018-10-02T02:51:35.211Z,16.33
2018-10-02T02:54:04.151Z,14.95
2018-10-02T02:56:33.054Z,18.02
2018-10-02T02:59:02.086Z,18.45
2018-10-02T03:01:31.049Z,15.95
2018-10-02T03:04:00.386Z,15.95
2018-10-02T03:06:29.302Z,16.07
2018-10-02T03:08:58.283Z,19.52
2018-10-02T03:11:27.207Z,17.60
2018-10-02T03:13:56.190Z,18.40
2018-10-02T03:16:25.117Z,20.07
2018-10-02T03:18:54.220Z,16.67
2018-10-02T03:21:23.161Z,17.30
2018-10-02T03:23:52.137Z,19.60
2018-10-02T03:26:21.062Z,19.10
2018-10-02T03:28:50.034Z,20.10
2018-10-02T03:31:18.971Z,20.17
2018-10-02T03:33:47.937Z,19.85
2018-10-02T03:36:16.898Z,14.20
2018-10-02T03:38:45.883Z,17.90
2018-10-02T03:41:14.834Z,22.47
2018-10-02T03:43:43.819Z,18.57
2018-10-02T03:46:12.781Z,17.27
2018-10-02T03:48:42.831Z,12.98
2018-10-02T03:51:11.767Z,12.93
2018-10-02T03:53:40.779Z,18.95
2018-10-02T03:56:09.739Z,18.87
2018-10-02T03:58:38.723Z,18.95
2018-10-02T04:01:07.738Z,18.50
2018-10-02T04:03:36.787Z,19.30
2018-10-02T04:06:05.753Z,14.03
2018-10-02T04:08:34.762Z,18.15
2018-10-02T04:11:03.730Z,14.63
2018-10-02T04:13:32.719Z,18.43
2018-10-02T04:16:01.708Z,11.80
2018-10-02T04:18:30.713Z,17.93
2018-10-02T04:20:59.674Z,18.55
2018-10-02T04:23:28.615Z,17.23
2018-10-02T04:25:57.558Z,17.17
2018-10-02T04:28:26.614Z,19.80
2018-10-02T04:30:55.490Z,15.90
2018-10-02T04:33:24.470Z,15.57
2018-10-02T04:35:54.066Z,16.42
2018-10-02T04:38:23.022Z,17.98
2018-10-02T04:40:51.970Z,14.73
2018-10-02T04:43:20.963Z,15.80
2018-10-02T04:45:49.926Z,13.10
2018-10-02T04:48:18.870Z,13.93
2018-10-02T04:50:47.829Z,18.62
2018-10-02T04:53:16.762Z,14.70
2018-10-02T04:55:45.810Z,15.78
2018-10-02T04:58:14.746Z,16.57
2018-10-02T05:00:43.708Z,17.62
2018-10-02T05:03:12.658Z,19.02
2018-10-02T05:05:41.632Z,14.78
2018-10-02T05:08:10.596Z,16.32
2018-10-02T05:10:39.587Z,22.22
2018-10-02T05:13:08.590Z,14.85
2018-10-02T05:15:37.579Z,21.23
2018-10-02T05:18:06.546Z,23.17
2018-10-02T05:20:35.611Z,23.10
2018-10-02T05:23:04.736Z,17.42
2018-10-02T05:25:33.720Z,21.07
2018-10-02T05:28:02.685Z,21.55
2018-10-02T05:30:31.697Z,19.00
2018-10-02T05:33:00.666Z,18.23
2018-10-02T05:35:29.769Z,15.80
2018-10-02T05:37:58.671Z,23.83
2018-10-02T05:40:27.638Z,21.70
2018-10-02T05:42:56.645Z,23.47
2018-10-02T05:45:25.619Z,24.07
2018-10-02T05:47:54.859Z,29.27
2018-10-02T05:50:23.878Z,23.70
2018-10-02T05:52:52.862Z,23.03
2018-10-02T05:55:21.846Z,22.93
2018-10-02T05:57:50.826Z,24.87
2018-10-02T06:00:19.804Z,25.35
2018-10-02T06:02:48.782Z,20.62
2018-10-02T06:05:17.766Z,25.62
2018-10-02T06:07:46.752Z,27.70
2018-10-02T06:10:15.735Z,24.30
2018-10-02T06:12:44.728Z,25.83
2018-10-02T06:15:13.736Z,23.30
2018-10-02T06:17:42.719Z,28.75
2018-10-02T06:20:11.711Z,28.10
2018-10-02T06:22:40.713Z,30.63
2018-10-02T06:25:09.717Z,30.52
2018-10-02T06:27:38.683Z,23.65
2018-10-02T06:30:07.705Z,28.45
2018-10-02T06:32:37.360Z,29.63
2018-10-02T06:35:06.332Z,33.20
2018-10-02T06:37:35.299Z,32.13
2018-10-02T06:40:04.288Z,27.87
2018-10-02T06:42:33.277Z,34.88
2018-10-02T06:45:02.328Z,29.13
2018-10-02T06:47:31.266Z,35.35
2018-10-02T06:50:00.263Z,31.68
2018-10-02T06:52:29.492Z,33.17
2018-10-02T06:54:58.271Z,28.83
2018-10-02T06:57:27.239Z,32.87
2018-10-02T06:59:56.231Z,36.28
2018-10-02T07:02:25.197Z,28.43
2018-10-02T07:04:54.198Z,30.03
2018-10-02T07:07:23.158Z,34.13
2018-10-02T07:09:52.175Z,31.07
2018-10-02T07:12:21.138Z,33.67
2018-10-02T07:14:50.113Z,27.05
2018-10-02T07:17:19.174Z,25.27
2018-10-02T07:19:48.183Z,25.20
2018-10-02T07:22:17.118Z,24.53
2018-10-02T07:24:46.079Z,24.07
2018-10-02T07:27:15.195Z,26.17
2018-10-02T07:29:44.018Z,28.12
2018-10-02T07:32:12.991Z,23.40
2018-10-02T07:34:41.930Z,27.40
2018-10-02T07:37:10.895Z,27.85
2018-10-02T07:39:39.855Z,24.15
2018-10-02T07:42:08.817Z,27.13
2018-10-02T07:44:37.824Z,22.03
2018-10-02T07:47:07.011Z,32.20
2018-10-02T07:49:35.968Z,23.85
2018-10-02T07:52:04.934Z,22.40
2018-10-02T07:54:33.875Z,18.77
2018-10-02T07:57:02.916Z,20.70
2018-10-02T07:59:31.922Z,20.60
2018-10-02T08:02:00.895Z,18.00
2018-10-02T08:04:29.834Z,21.17
2018-10-02T08:06:59.780Z,18.40
2018-10-02T08:09:28.731Z,20.97
2018-10-02T08:11:57.731Z,19.07
2018-10-02T08:14:26.753Z,16.60
2018-10-02T08:16:55.695Z,17.07
2018-10-02T08:19:24.646Z,20.73
2018-10-02T08:21:53.619Z,24.25
2018-10-02T08:24:22.573Z,21.77
2018-10-02T08:26:51.558Z,27.32
2018-10-02T08:29:20.579Z,19.10
2018-10-02T08:31:49.501Z,24.20
2018-10-02T08:34:18.471Z,20.90
2018-10-02T08:36:47.459Z,21.83
2018-10-02T08:39:16.403Z,19.75
2018-10-02T08:41:45.401Z,21.15
2018-10-02T08:44:14.355Z,23.43
2018-10-02T08:46:43.318Z,20.13
2018-10-02T08:49:12.235Z,22.00
2018-10-02T08:51:41.280Z,23.40
2018-10-02T08:54:10.311Z,18.90
2018-10-02T08:56:39.291Z,23.57
2018-10-02T08:59:08.299Z,21.62
2018-10-02T09:01:37.271Z,31.85
2018-10-02T09:04:06.286Z,23.75
2018-10-02T09:06:35.289Z,24.87
2018-10-02T09:09:06.003Z,20.90
2018-10-02T09:11:34.983Z,21.05
2018-10-02T09:14:03.964Z,20.63
2018-10-02T09:16:33.004Z,20.15
2018-10-02T09:19:02.310Z,20.47
2018-10-02T09:21:31.323Z,20.77
2018-10-02T09:24:00.346Z,25.80
2018-10-02T09:26:29.319Z,20.30
2018-10-02T09:28:58.345Z,19.10
2018-10-02T09:31:32.745Z,18.87
2018-10-02T09:34:07.110Z,19.63
2018-10-02T09:36:41.462Z,33.63
2018-10-02T09:39:15.670Z,15.08
2018-10-02T09:41:50.026Z,18.90
2018-10-02T09:44:19.004Z,16.40
2018-10-02T09:46:48.040Z,16.67
2018-10-02T09:49:17.017Z,21.93
2018-10-02T09:51:46.076Z,24.63
2018-10-02T09:54:14.997Z,18.45
2018-10-02T09:56:45.100Z,16.60
2018-10-02T09:59:15.351Z,17.20
2018-10-02T10:01:49.550Z,17.73
2018-10-02T10:04:18.734Z,20.40
2018-10-02T10:06:47.782Z,16.77
2018-10-02T10:09:16.842Z,19.03
2018-10-02T10:11:45.826Z,20.80
2018-10-02T10:14:14.863Z,16.63
2018-10-02T10:16:43.957Z,16.53
2018-10-02T10:19:13.047Z,17.98
2018-10-02T10:21:42.090Z,13.80
2018-10-02T10:24:11.077Z,14.80
2018-10-02T10:26:40.055Z,13.13
2018-10-02T10:29:09.169Z,16.27
2018-10-02T10:31:38.099Z,13.88
2018-10-02T10:34:07.112Z,19.73
2018-10-02T10:36:36.092Z,11.13
2018-10-02T10:39:08.086Z,15.23
2018-10-02T10:41:37.066Z,11.10
2018-10-02T10:44:06.198Z,12.50
2018-10-02T10:46:35.545Z,14.63
2018-10-02T10:49:04.521Z,14.05
2018-10-02T10:51:33.482Z,10.82
2018-10-02T10:54:02.466Z,13.03
2018-10-02T10:56:31.565Z,19.90
2018-10-02T10:59:00.464Z,14.43
2018-10-02T11:01:29.439Z,10.10
2018-10-02T11:03:58.640Z,10.18
2018-10-02T11:06:27.678Z,14.50
2018-10-02T11:08:56.676Z,7.53
2018-10-02T11:11:26.683Z,9.70
2018-10-02T11:13:55.687Z,7.30
2018-10-02T11:16:24.663Z,7.17
2018-10-02T11:18:53.835Z,11.57
2018-10-02T11:21:22.816Z,9.15
2018-10-02T11:23:51.801Z,8.00
2018-10-02T11:26:20.756Z,7.33
2018-10-02T11:28:50.746Z,6.90
2018-10-02T11:31:19.882Z,7.27
2018-10-02T11:33:48.982Z,10.32
2018-10-02T11:36:18.027Z,9.23
2018-10-02T11:38:47.016Z,7.60
2018-10-02T11:41:15.974Z,9.70
2018-10-02T11:43:48.916Z,6.80
2018-10-02T11:46:17.872Z,6.00
2018-10-02T11:48:46.934Z,6.70
2018-10-02T11:51:15.945Z,7.67
2018-10-02T11:53:44.918Z,8.18
2018-10-02T11:56:13.915Z,8.68
2018-10-02T11:58:43.973Z,10.70
2018-10-02T12:01:13.067Z,7.60
2018-10-02T12:03:42.019Z,8.94
2018-10-02T12:06:11.075Z,5.50
2018-10-02T12:08:40.044Z,8.78
2018-10-02T12:11:09.018Z,7.45
2018-10-02T12:13:38.168Z,11.30
2018-10-02T12:16:07.142Z,7.70
2018-10-02T12:18:36.082Z,7.33
2018-10-02T12:21:05.147Z,6.20
2018-10-02T12:23:34.991Z,8.90
2018-10-02T12:26:04.088Z,8.93
2018-10-02T12:28:33.033Z,7.60
2018-10-02T12:31:02.060Z,5.83
2018-10-02T12:33:30.975Z,5.47
2018-10-02T12:35:59.922Z,5.60
2018-10-02T12:38:28.864Z,5.70
2018-10-02T12:40:57.830Z,6.47
2018-10-02T12:43:26.766Z,7.08
2018-10-02T12:45:55.745Z,7.03
2018-10-02T12:48:24.994Z,6.63
2018-10-02T12:50:53.975Z,5.60
2018-10-02T12:53:23.004Z,7.25
2018-10-02T12:55:51.940Z,6.78
2018-10-02T12:58:20.895Z,6.10
2018-10-02T13:00:49.866Z,6.47
2018-10-02T13:03:18.815Z,6.97
2018-10-02T13:05:47.800Z,8.73
2018-10-02T13:08:16.762Z,5.77
2018-10-02T13:10:45.730Z,6.60
2018-10-02T13:13:14.782Z,7.42
2018-10-02T13:15:43.735Z,5.50
2018-10-02T13:18:12.691Z,6.62
2018-10-02T13:20:41.658Z,5.97
2018-10-02T13:23:10.614Z,6.92
2018-10-02T13:25:39.586Z,7.10
2018-10-02T13:28:08.557Z,10.00
2018-10-02T13:30:37.526Z,7.70
2018-10-02T13:33:06.510Z,8.10
2018-10-02T13:35:35.484Z,9.75
2018-10-02T13:38:04.485Z,10.15
2018-10-02T13:40:33.437Z,11.00
2018-10-02T13:43:02.416Z,9.60
2018-10-02T13:45:31.381Z,10.07
2018-10-02T13:48:00.342Z,9.18
2018-10-02T13:50:29.406Z,10.50
2018-10-02T13:52:58.478Z,8.60
2018-10-02T13:55:27.462Z,8.20
2018-10-02T13:57:56.479Z,8.90
2018-10-02T14:00:25.475Z,9.50
2018-10-02T14:02:54.437Z,10.70
2018-10-02T14:05:23.399Z,10.00
2018-10-02T14:07:52.382Z,10.30
2018-10-02T14:10:21.327Z,10.80
2018-10-02T14:12:50.312Z,11.00
2018-10-02T14:15:19.276Z,9.57
2018-10-02T14:17:48.302Z,10.48
2018-10-02T14:20:17.262Z,9.73
2018-10-02T14:22:46.266Z,10.85
2018-10-02T14:25:15.251Z,9.80
2018-10-02T14:27:44.241Z,10.63
2018-10-02T14:30:13.212Z,9.33
2018-10-02T14:32:42.614Z,8.93
2018-10-02T14:35:11.579Z,10.10
2018-10-02T14:37:40.542Z,8.45
2018-10-02T14:40:09.530Z,9.30
2018-10-02T14:42:38.499Z,9.30
2018-10-02T14:45:07.469Z,8.95
2018-10-02T14:47:36.446Z,11.68
2018-10-02T14:50:05.507Z,11.00
2018-10-02T14:52:34.486Z,14.97
2018-10-02T14:55:03.422Z,12.90
2018-10-02T14:57:32.458Z,13.90
2018-10-02T15:00:01.427Z,17.05
2018-10-02T15:02:30.385Z,17.30
2018-10-02T15:04:59.346Z,17.23
2018-10-02T15:07:28.298Z,16.10
2018-10-02T15:09:57.255Z,16.87
2018-10-02T15:12:26.222Z,20.60
2018-10-02T15:14:55.171Z,18.13
2018-10-02T15:17:24.171Z,18.30
2018-10-02T15:19:53.275Z,21.02
2018-10-02T15:22:22.237Z,23.98
2018-10-02T15:24:51.177Z,21.87
2018-10-02T15:27:20.118Z,21.93
2018-10-02T15:29:49.131Z,21.90
2018-10-02T15:32:18.090Z,22.90
2018-10-02T15:34:47.003Z,22.90
2018-10-02T15:37:15.958Z,22.98
2018-10-02T15:39:44.896Z,24.55
2018-10-02T15:42:13.866Z,30.53
2018-10-02T15:44:42.874Z,20.92
2018-10-02T15:47:11.830Z,26.15
2018-10-02T15:49:40.800Z,23.62
2018-10-02T15:52:09.755Z,22.02
2018-10-02T15:54:38.710Z,22.53
2018-10-02T15:57:07.669Z,25.00
2018-10-02T15:59:36.607Z,25.75
2018-10-02T16:02:05.582Z,21.17
2018-10-02T16:04:34.532Z,24.57
2018-10-02T16:07:03.505Z,22.55
2018-10-02T16:09:32.470Z,27.20
2018-10-02T16:12:01.442Z,22.60
2018-10-02T16:14:30.442Z,25.33
2018-10-02T16:16:59.429Z,23.90
2018-10-02T16:19:28.445Z,21.35
2018-10-02T16:21:57.413Z,20.12
2018-10-02T16:24:26.398Z,20.35
2018-10-02T16:26:55.439Z,17.80
2018-10-02T16:29:24.428Z,19.90
2018-10-02T16:31:53.378Z,22.20
2018-10-02T16:34:22.426Z,26.10
2018-10-02T16:36:51.459Z,16.77
2018-10-02T16:39:20.451Z,21.67
2018-10-02T16:41:49.410Z,20.37
2018-10-02T16:44:18.391Z,23.92
2018-10-02T16:46:47.348Z,21.55
2018-10-02T16:49:16.342Z,17.30
2018-10-02T16:51:45.335Z,21.27
2018-10-02T16:54:14.336Z,23.35
2018-10-02T16:56:43.327Z,32.58
2018-10-02T16:59:12.337Z,28.27
2018-10-02T17:01:41.358Z,22.17
2018-10-02T17:04:10.418Z,22.53
2018-10-02T17:06:39.335Z,21.20
2018-10-02T17:09:08.602Z,23.57
2018-10-02T17:11:37.565Z,24.15
2018-10-02T17:14:06.597Z,20.80
2018-10-02T17:16:35.634Z,31.45
2018-10-02T17:19:04.618Z,20.43
2018-10-02T17:21:33.544Z,20.00
2018-10-02T17:24:02.517Z,20.50
2018-10-02T17:26:31.576Z,23.15
2018-10-02T17:29:00.570Z,25.25
2018-10-02T17:31:29.511Z,24.18
2018-10-02T17:33:58.467Z,22.75
2018-10-02T17:36:27.406Z,17.60
2018-10-02T17:38:56.412Z,26.23
2018-10-02T17:41:25.359Z,29.53
2018-10-02T17:43:54.327Z,24.40
2018-10-02T17:46:23.275Z,26.37
2018-10-02T17:48:52.329Z,23.17
2018-10-02T17:51:21.243Z,27.85
2018-10-02T17:53:50.222Z,24.80
2018-10-02T17:56:19.170Z,21.93
2018-10-02T17:58:48.147Z,25.85
2018-10-02T18:01:17.332Z,21.07
2018-10-02T18:03:46.271Z,22.67
2018-10-02T18:06:15.207Z,23.35
2018-10-02T18:08:44.193Z,21.07
2018-10-02T18:11:13.146Z,19.80
2018-10-02T18:13:42.146Z,32.00
2018-10-02T18:16:11.191Z,21.65
2018-10-02T18:18:40.167Z,25.48
2018-10-02T18:21:09.119Z,26.90
2018-10-02T18:23:38.100Z,23.15
2018-10-02T18:26:07.186Z,26.55
2018-10-02T18:28:36.218Z,20.45
2018-10-02T18:31:05.182Z,23.42
2018-10-02T18:33:34.118Z,21.60
2018-10-02T18:36:03.090Z,19.17
2018-10-02T18:38:32.122Z,19.92
2018-10-02T18:41:01.097Z,21.55
2018-10-02T18:43:30.044Z,21.02
2018-10-02T18:45:59.042Z,18.10
2018-10-02T18:48:28.014Z,23.22
2018-10-02T18:50:57.354Z,21.10
2018-10-02T18:53:26.323Z,22.82
2018-10-02T18:55:55.294Z,21.52
2018-10-02T18:58:24.238Z,23.83
2018-10-02T19:00:53.221Z,18.40
2018-10-02T19:03:22.159Z,26.42
2018-10-02T19:05:51.136Z,27.85
2018-10-02T19:08:24.246Z,24.02
2018-10-02T19:10:53.212Z,20.27
2018-10-02T19:13:22.138Z,28.50
2018-10-02T19:15:56.457Z,17.20
2018-10-02T19:18:25.394Z,24.15
2018-10-02T19:20:54.342Z,27.02
2018-10-02T19:23:23.275Z,17.50
2018-10-02T19:26:03.339Z,26.42
2018-10-02T19:28:32.488Z,25.57
2018-10-02T19:31:06.895Z,26.48
2018-10-02T19:33:35.864Z,21.93
2018-10-02T19:36:04.813Z,26.20
2018-10-02T19:38:39.146Z,19.73
2018-10-02T19:41:08.168Z,25.85
2018-10-02T19:43:37.121Z,28.60
2018-10-02T19:46:11.462Z,33.05
2018-10-02T19:48:40.372Z,22.07
2018-10-02T19:51:14.919Z,23.67
2018-10-02T19:53:43.858Z,20.10
2018-10-02T19:56:12.786Z,25.37
2018-10-02T19:58:41.791Z,14.33
2018-10-02T20:01:10.698Z,31.97
2018-10-02T20:03:39.645Z,26.60
2018-10-02T20:06:08.590Z,19.67
2018-10-02T20:08:37.518Z,22.85
2018-10-02T20:11:06.594Z,18.20
2018-10-02T20:13:35.643Z,24.70
2018-10-02T20:16:04.562Z,23.77
2018-10-02T20:18:33.482Z,26.25
2018-10-02T20:21:02.436Z,20.45
2018-10-02T20:23:31.358Z,28.55
2018-10-02T20:26:00.722Z,27.80
2018-10-02T20:28:29.634Z,24.30
2018-10-02T20:30:58.591Z,20.37
2018-10-02T20:33:27.570Z,28.47
2018-10-02T20:35:56.514Z,28.15
2018-10-02T20:38:25.431Z,34.67
2018-10-02T20:40:54.362Z,24.27
2018-10-02T20:43:23.315Z,26.85
2018-10-02T20:45:52.467Z,33.48
2018-10-02T20:48:21.384Z,32.03
2018-10-02T20:50:50.427Z,26.75
2018-10-02T20:53:19.388Z,25.05
2018-10-02T20:55:48.339Z,20.80
2018-10-02T20:58:17.349Z,28.92
2018-10-02T21:00:46.279Z,23.07
2018-10-02T21:03:15.287Z,31.33
2018-10-02T21:05:44.257Z,22.70
2018-10-02T21:08:13.286Z,23.57
2018-10-02T21:10:42.291Z,31.73
2018-10-02T21:13:11.255Z,30.20
2018-10-02T21:15:40.298Z,24.43
2018-10-02T21:18:09.151Z,28.42
2018-10-02T21:20:38.071Z,32.07
2018-10-02T21:23:07.050Z,23.57
2018-10-02T21:25:35.985Z,28.85
2018-10-02T21:28:04.935Z,28.45
2018-10-02T21:30:33.856Z,32.75
2018-10-02T21:33:02.798Z,30.85
2018-10-02T21:35:31.795Z,29.80
2018-10-02T21:38:00.757Z,33.18
2018-10-02T21:40:29.725Z,27.70
2018-10-02T21:42:58.654Z,27.07
2018-10-02T21:45:27.614Z,30.27
2018-10-02T21:47:56.542Z,29.20
2018-10-02T21:50:25.451Z,36.38
2018-10-02T21:52:54.414Z,26.80
2018-10-02T21:55:23.335Z,31.27
2018-10-02T21:57:52.327Z,28.75
2018-10-02T22:00:21.311Z,28.95
2018-10-02T22:02:50.286Z,40.70
2018-10-02T22:05:19.263Z,40.80
2018-10-02T22:07:48.245Z,36.60
2018-10-02T22:10:17.207Z,28.23
2018-10-02T22:12:46.115Z,36.50
2018-10-02T22:15:15.184Z,44.80
2018-10-02T22:17:44.095Z,40.17
2018-10-02T22:20:13.070Z,34.70
2018-10-02T22:22:42.018Z,35.85
2018-10-02T22:25:10.978Z,32.63
2018-10-02T22:27:39.952Z,36.05
2018-10-02T22:30:10.610Z,39.55
2018-10-02T22:32:39.546Z,25.57
2018-10-02T22:35:08.591Z,26.85
2018-10-02T22:37:37.555Z,33.42
2018-10-02T22:40:06.515Z,25.97
2018-10-02T22:42:35.846Z,47.65
2018-10-02T22:45:04.802Z,41.83
2018-10-02T22:47:33.797Z,44.75
2018-10-02T22:50:03.430Z,31.33
2018-10-02T22:52:32.362Z,42.40
2018-10-02T22:55:01.347Z,43.92
2018-10-02T22:57:30.279Z,34.53
2018-10-02T22:59:59.301Z,37.73
2018-10-02T23:02:28.263Z,38.08
2018-10-02T23:04:57.203Z,33.13
2018-10-02T23:07:26.223Z,39.90
2018-10-02T23:09:55.188Z,33.10
2018-10-02T23:12:24.202Z,37.00
2018-10-02T23:14:53.203Z,32.35
2018-10-02T23:17:22.127Z,38.47
2018-10-02T23:19:51.235Z,35.85
2018-10-02T23:22:20.150Z,39.92
2018-10-02T23:24:49.122Z,42.90
2018-10-02T23:27:18.133Z,39.83
2018-10-02T23:29:47.050Z,45.67
2018-10-02T23:32:16.047Z,35.95
2018-10-02T23:34:44.958Z,41.83
2018-10-02T23:37:13.945Z,38.92
2018-10-02T23:39:42.875Z,36.98
2018-10-02T23:42:11.819Z,40.95
2018-10-02T23:44:40.843Z,31.07
2018-10-02T23:47:09.795Z,35.50
2018-10-02T23:49:38.795Z,36.05
2018-10-02T23:52:07.747Z,36.20
2018-10-02T23:54:36.680Z,48.55
2018-10-02T23:57:05.662Z,37.10
2018-10-02T23:59:34.615Z,37.98
